Time;durP1;ratioP1;P1;durP2;ratioP2;P2;SDS_P1;SDS_P2;PMS_P1;PMS_P2;Temp;Humidity;BMP_temperature;BMP_pressure;BME280_temperature;BME280_humidity;BME280_pressure;Samples;Min_cycle;Max_cycle;Signal;HPM_P1;HPM_P2
2022/12/27 00:00:31;;;;;;;14.77;9.50;;;;;21.30;101058.00;;;;2061784;28;20207;-52
2022/12/27 00:01:31;;;;;;;13.83;9.67;;;;;21.30;101052.00;;;;2062262;28;20294;-53
2022/12/27 00:02:32;;;;;;;13.87;9.73;;;;;21.30;101061.00;;;;2058902;28;20703;-52
2022/12/27 00:03:32;;;;;;;12.63;8.83;;;;;21.30;101064.00;;;;2061925;28;20647;-52
2022/12/27 00:04:32;;;;;;;12.10;8.40;;;;;21.30;101061.00;;;;2062172;28;20686;-53
2022/12/27 00:05:32;;;;;;;12.00;8.90;;;;;21.30;101059.00;;;;2061325;28;20683;-52
2022/12/27 00:06:33;;;;;;;11.23;7.43;;;;;21.30;101063.00;;;;2063812;28;20769;-53
2022/12/27 00:07:33;;;;;;;12.03;8.07;;;;;21.30;101060.00;;;;2059804;28;20551;-52
2022/12/27 00:08:34;;;;;;;9.00;7.70;;;;;21.30;101063.00;;;;2046969;28;20279;-53
2022/12/27 00:09:34;;;;;;;11.03;7.83;;;;;21.30;101058.00;;;;2047079;28;20260;-53
2022/12/27 00:10:34;;;;;;;9.90;7.40;;;;;21.30;101060.00;;;;2055577;28;20218;-53
2022/12/27 00:11:35;;;;;;;10.23;7.77;;;;;21.30;101062.00;;;;2046905;28;20693;-52
2022/12/27 00:12:35;;;;;;;11.43;7.53;;;;;21.30;101063.00;;;;2045982;28;20747;-52
2022/12/27 00:13:35;;;;;;;10.33;7.53;;;;;21.30;101064.00;;;;2060669;28;20230;-53
2022/12/27 00:14:36;;;;;;;11.27;7.80;;;;;21.30;101063.00;;;;2062133;28;20225;-53
2022/12/27 00:15:36;;;;;;;9.97;6.60;;;;;21.30;101064.00;;;;2062644;28;20312;-52
2022/12/27 00:16:36;;;;;;;10.63;8.20;;;;;21.20;101068.00;;;;2059210;28;20298;-53
2022/12/27 00:17:37;;;;;;;8.97;6.57;;;;;21.20;101061.00;;;;2059947;28;20797;-53
2022/12/27 00:18:37;;;;;;;8.70;5.90;;;;;21.20;101063.00;;;;2063229;28;20218;-53
2022/12/27 00:19:38;;;;;;;9.53;6.53;;;;;21.20;101061.00;;;;2051889;28;20363;-52
2022/12/27 00:20:38;;;;;;;7.40;6.33;;;;;21.20;101062.00;;;;2046499;28;20247;-52
2022/12/27 00:21:38;;;;;;;8.90;6.40;;;;;21.20;101059.00;;;;2060021;28;20218;-53
2022/12/27 00:22:39;;;;;;;8.80;6.23;;;;;21.20;101076.00;;;;2062823;28;20215;-52
2022/12/27 00:23:41;;;;;;;7.60;6.10;;;;;21.20;101069.00;;;;2057036;28;20289;-52
2022/12/27 00:24:42;;;;;;;7.68;6.00;;;;;21.20;101067.00;;;;2062973;28;20215;-53
2022/12/27 00:25:42;;;;;;;8.10;6.27;;;;;21.20;101069.00;;;;2058706;28;20243;-52
2022/12/27 00:26:42;;;;;;;9.73;5.87;;;;;21.20;101073.00;;;;2055488;28;20259;-52
2022/12/27 00:27:43;;;;;;;8.07;6.50;;;;;21.20;101073.00;;;;2058182;28;20431;-52
2022/12/27 00:28:43;;;;;;;8.27;5.57;;;;;21.20;101067.00;;;;2063525;28;20219;-53
2022/12/27 00:29:43;;;;;;;6.67;5.33;;;;;21.20;101064.00;;;;2063410;28;20640;-52
2022/12/27 00:30:44;;;;;;;7.97;5.70;;;;;21.20;101062.00;;;;2063559;28;20210;-52
2022/12/27 00:31:44;;;;;;;8.17;5.57;;;;;21.20;101065.00;;;;2063179;28;20226;-52
2022/12/27 00:32:44;;;;;;;8.10;5.43;;;;;21.20;101062.00;;;;2062500;28;20250;-53
2022/12/27 00:33:45;;;;;;;6.70;5.90;;;;;21.20;101050.00;;;;2059044;28;20219;-53
2022/12/27 00:34:45;;;;;;;6.60;4.77;;;;;21.20;101073.00;;;;2051919;28;20220;-53
2022/12/27 00:35:45;;;;;;;7.43;5.23;;;;;21.10;101056.00;;;;2054766;28;20226;-53
2022/12/27 00:36:46;;;;;;;8.93;6.13;;;;;21.10;101069.00;;;;2063579;28;20309;-52
2022/12/27 00:37:46;;;;;;;7.87;5.33;;;;;21.10;101058.00;;;;2063022;28;20317;-53
2022/12/27 00:38:47;;;;;;;10.97;5.27;;;;;21.10;101059.00;;;;2063371;28;22954;-53
2022/12/27 00:39:47;;;;;;;7.20;4.93;;;;;21.10;101066.00;;;;2062963;28;20255;-53
2022/12/27 00:40:47;;;;;;;7.00;5.17;;;;;21.10;101071.00;;;;2063172;28;20219;-52
2022/12/27 00:41:48;;;;;;;6.43;4.67;;;;;21.10;101070.00;;;;2062819;28;20223;-52
2022/12/27 00:42:48;;;;;;;7.67;4.63;;;;;21.10;101056.00;;;;2063168;28;20234;-52
2022/12/27 00:43:49;;;;;;;7.20;4.93;;;;;21.10;101060.00;;;;2063310;28;20221;-53
2022/12/27 00:44:49;;;;;;;7.67;5.33;;;;;21.10;101063.00;;;;2063298;28;20214;-53
2022/12/27 00:45:49;;;;;;;8.77;4.80;;;;;21.10;101054.00;;;;2062710;28;20664;-53
2022/12/27 00:46:49;;;;;;;7.30;4.83;;;;;21.10;101063.00;;;;2063202;28;20702;-53
2022/12/27 00:47:50;;;;;;;10.00;5.17;;;;;21.10;101061.00;;;;2061452;28;20726;-53
2022/12/27 00:48:51;;;;;;;6.53;4.87;;;;;21.10;101059.00;;;;2057953;28;20668;-53
2022/12/27 00:49:51;;;;;;;8.50;5.40;;;;;21.10;101069.00;;;;2063119;28;20238;-52
2022/12/27 00:51:02;;;;;;;6.90;4.70;;;;;21.10;101066.00;;;;2063438;28;20310;-52
2022/12/27 00:52:02;;;;;;;6.60;4.47;;;;;21.10;101067.00;;;;2054807;28;20240;-52
2022/12/27 00:53:02;;;;;;;6.73;4.40;;;;;21.10;101066.00;;;;2055412;28;20664;-52
2022/12/27 00:54:03;;;;;;;6.50;3.87;;;;;21.10;101069.00;;;;2059568;28;20218;-54
2022/12/27 00:55:03;;;;;;;6.70;4.13;;;;;21.10;101074.00;;;;2062539;28;20219;-52
2022/12/27 00:56:11;;;;;;;6.63;4.53;;;;;21.00;101075.00;;;;2060692;28;20258;-53
2022/12/27 00:57:11;;;;;;;7.25;4.40;;;;;21.00;101069.00;;;;2051903;28;20570;-52
2022/12/27 00:58:12;;;;;;;6.30;3.73;;;;;21.00;101071.00;;;;2056866;28;20231;-53
2022/12/27 00:59:12;;;;;;;7.33;4.20;;;;;21.00;101071.00;;;;2060426;28;20254;-53
2022/12/27 01:00:13;;;;;;;5.90;4.60;;;;;21.10;101077.00;;;;2055112;28;20218;-52
2022/12/27 01:01:16;;;;;;;6.60;4.30;;;;;21.00;101074.00;;;;2055240;28;20284;-53
2022/12/27 01:02:16;;;;;;;5.55;3.88;;;;;21.00;101079.00;;;;2054365;28;20494;-52
2022/12/27 01:03:16;;;;;;;5.90;4.10;;;;;21.00;101079.00;;;;2058088;28;20222;-53
2022/12/27 01:04:17;;;;;;;5.33;3.67;;;;;21.00;101072.00;;;;2063021;28;20827;-53
2022/12/27 01:05:17;;;;;;;6.60;4.73;;;;;21.00;101077.00;;;;2063117;28;20714;-53
2022/12/27 01:06:21;;;;;;;7.17;4.13;;;;;21.00;101085.00;;;;2054571;28;20778;-52
2022/12/27 01:07:22;;;;;;;5.53;3.83;;;;;21.00;101076.00;;;;2054922;28;20223;-52
2022/12/27 01:08:23;;;;;;;5.70;3.40;;;;;21.00;101078.00;;;;2059123;28;20222;-52
2022/12/27 01:09:23;;;;;;;5.93;3.80;;;;;21.00;101083.00;;;;2053935;28;20467;-52
2022/12/27 01:10:23;;;;;;;4.83;3.67;;;;;21.00;101085.00;;;;2054855;28;20226;-53
2022/12/27 01:11:25;;;;;;;5.93;4.27;;;;;21.00;101083.00;;;;2055086;28;20216;-53
2022/12/27 01:12:25;;;;;;;8.20;4.03;;;;;21.00;101087.00;;;;2054189;28;20222;-53
2022/12/27 01:13:26;;;;;;;5.43;3.73;;;;;21.00;101087.00;;;;2059976;28;20692;-52
2022/12/27 01:14:26;;;;;;;5.57;3.63;;;;;21.00;101086.00;;;;2062615;28;20579;-52
2022/12/27 01:15:26;;;;;;;4.83;3.27;;;;;21.00;101088.00;;;;2062605;28;20822;-52
2022/12/27 01:16:27;;;;;;;7.53;3.77;;;;;21.00;101086.00;;;;2063219;28;20978;-52
2022/12/27 01:17:28;;;;;;;5.45;3.90;;;;;21.00;101086.00;;;;2063137;28;20218;-53
2022/12/27 01:18:29;;;;;;;7.57;3.93;;;;;20.90;101084.00;;;;2062698;28;20223;-52
2022/12/27 01:19:29;;;;;;;4.87;3.70;;;;;21.00;101080.00;;;;2062743;28;20305;-53
2022/12/27 01:20:29;;;;;;;3.93;3.00;;;;;21.00;101084.00;;;;2059213;28;20215;-52
2022/12/27 01:21:29;;;;;;;5.70;3.40;;;;;21.00;101085.00;;;;2055035;28;20242;-53
2022/12/27 01:22:30;;;;;;;6.20;3.60;;;;;20.90;101084.00;;;;2059709;28;20230;-53
2022/12/27 01:23:31;;;;;;;5.00;3.47;;;;;20.90;101082.00;;;;2056867;28;20203;-52
2022/12/27 01:24:31;;;;;;;3.80;2.80;;;;;20.90;101088.00;;;;2054794;28;20246;-52
2022/12/27 01:25:32;;;;;;;4.10;3.13;;;;;20.90;101081.00;;;;2054479;28;20216;-52
2022/12/27 01:26:32;;;;;;;5.60;3.53;;;;;20.90;101076.00;;;;2058649;28;20454;-52
2022/12/27 01:27:32;;;;;;;4.73;3.40;;;;;20.90;101081.00;;;;2057590;28;20239;-53
2022/12/27 01:28:33;;;;;;;5.43;3.30;;;;;20.90;101087.00;;;;2062795;28;20219;-53
2022/12/27 01:29:33;;;;;;;4.83;3.00;;;;;20.90;101084.00;;;;2055161;28;20226;-53
2022/12/27 01:30:34;;;;;;;5.07;3.70;;;;;20.90;101086.00;;;;2056257;28;20242;-52
2022/12/27 01:31:34;;;;;;;4.80;2.77;;;;;20.90;101086.00;;;;2062844;28;20218;-53
2022/12/27 01:32:34;;;;;;;4.40;2.73;;;;;20.90;101090.00;;;;2062219;28;20734;-53
2022/12/27 01:33:35;;;;;;;3.90;2.90;;;;;20.90;101089.00;;;;2062889;28;21171;-52
2022/12/27 01:34:35;;;;;;;5.83;3.57;;;;;20.90;101093.00;;;;2062672;28;20656;-53
2022/12/27 01:35:36;;;;;;;5.07;2.63;;;;;20.90;101108.00;;;;2055082;28;20834;-53
2022/12/27 01:36:36;;;;;;;4.30;2.70;;;;;20.90;101101.00;;;;2062326;28;20677;-55
2022/12/27 01:37:37;;;;;;;4.57;3.20;;;;;20.90;101095.00;;;;2054889;28;20624;-54
2022/12/27 01:38:37;;;;;;;5.37;2.93;;;;;20.90;101093.00;;;;2056741;28;20223;-52
2022/12/27 01:39:37;;;;;;;4.53;2.73;;;;;20.90;101100.00;;;;2060430;28;20273;-53
2022/12/27 01:40:38;;;;;;;5.93;3.17;;;;;20.90;101100.00;;;;2060501;28;20238;-53
2022/12/27 01:42:59;;;;;;;4.57;2.80;;;;;20.90;101099.00;;;;2059663;28;20295;-53
2022/12/27 01:43:59;;;;;;;3.23;2.57;;;;;20.90;101092.00;;;;2054969;28;20219;-53
2022/12/27 01:44:59;;;;;;;4.90;2.63;;;;;20.80;101103.00;;;;2054899;28;20220;-53
2022/12/27 01:46:00;;;;;;;4.07;2.63;;;;;20.90;101081.00;;;;2046288;28;20258;-53
2022/12/27 01:47:00;;;;;;;5.10;3.10;;;;;20.90;101106.00;;;;2045800;28;20608;-53
2022/12/27 01:48:08;;;;;;;4.20;2.90;;;;;20.80;101108.00;;;;2054040;28;20642;-53
2022/12/27 01:49:09;;;;;;;4.22;2.90;;;;;20.80;101107.00;;;;2038352;29;20209;-52
2022/12/27 01:50:33;;;;;;;4.53;2.80;;;;;20.80;101107.00;;;;2038095;29;20279;-53
2022/12/27 01:51:33;;;;;;;4.60;2.38;;;;;20.80;101118.00;;;;2056440;28;20561;-53
2022/12/27 01:52:40;;;;;;;3.93;2.23;;;;;20.80;101116.00;;;;2061155;28;20281;-53
2022/12/27 01:53:43;;;;;;;3.83;2.83;;;;;20.80;101114.00;;;;2061621;28;20227;-53
2022/12/27 01:54:43;;;;;;;5.60;2.60;;;;;20.80;101122.00;;;;2045041;29;20220;-53
2022/12/27 01:55:56;;;;;;;4.00;2.63;;;;;20.80;101123.00;;;;2045090;29;20216;-52
2022/12/27 01:56:56;;;;;;;5.20;2.50;;;;;20.80;101126.00;;;;2039807;29;20712;-52
2022/12/27 01:58:01;;;;;;;6.00;2.90;;;;;20.80;101126.00;;;;2038246;29;20223;-52
2022/12/27 01:59:04;;;;;;;3.65;2.65;;;;;20.80;101138.00;;;;2046782;28;20639;-53
2022/12/27 02:00:05;;;;;;;4.82;2.42;;;;;20.80;101134.00;;;;2046129;28;20785;-52
2022/12/27 02:01:10;;;;;;;3.10;2.30;;;;;20.80;101121.00;;;;2046832;28;20212;-53
2022/12/27 02:02:10;;;;;;;5.38;2.50;;;;;20.80;101131.00;;;;2045132;29;20456;-55
2022/12/27 02:03:11;;;;;;;5.33;2.60;;;;;20.80;101126.00;;;;2045945;28;20593;-55
2022/12/27 02:04:13;;;;;;;7.33;2.50;;;;;20.80;101143.00;;;;2038238;29;20593;-53
2022/12/27 02:05:14;;;;;;;4.15;2.30;;;;;20.80;101130.00;;;;2030345;29;20233;-53
2022/12/27 02:06:15;;;;;;;5.13;2.63;;;;;20.80;101128.00;;;;2034829;28;20299;-53
2022/12/27 02:07:15;;;;;;;5.83;3.00;;;;;20.80;101141.00;;;;2054045;28;20501;-52
2022/12/27 02:08:32;;;;;;;4.10;2.30;;;;;20.70;101129.00;;;;2053649;28;20319;-53
2022/12/27 02:09:39;;;;;;;3.55;2.20;;;;;20.70;101140.00;;;;2053496;28;20230;-52
2022/12/27 02:10:40;;;;;;;3.55;2.20;;;;;20.80;101130.00;;;;2041435;29;20228;-53
2022/12/27 02:11:51;;;;;;;2.70;1.93;;;;;20.80;101130.00;;;;2046050;28;20751;-52
2022/12/27 02:12:52;;;;;;;3.58;2.25;;;;;20.80;101130.00;;;;2045599;28;20594;-53
2022/12/27 02:13:52;;;;;;;3.20;2.23;;;;;20.70;101126.00;;;;2052334;28;20228;-53
2022/12/27 02:14:52;;;;;;;5.43;2.50;;;;;20.70;101130.00;;;;2056016;28;20219;-53
2022/12/27 02:15:53;;;;;;;3.20;2.13;;;;;20.80;101127.00;;;;2054466;28;20247;-53
2022/12/27 02:16:53;;;;;;;2.70;1.77;;;;;20.70;101135.00;;;;2062330;28;20284;-53
2022/12/27 02:17:53;;;;;;;3.20;2.00;;;;;20.70;101135.00;;;;2045461;29;20692;-54
2022/12/27 02:18:54;;;;;;;4.73;2.40;;;;;20.70;101132.00;;;;2045270;28;20224;-53
2022/12/27 02:20:16;;;;;;;4.00;2.53;;;;;20.70;101136.00;;;;2062143;28;20215;-53
2022/12/27 02:21:45;;;;;;;4.63;2.58;;;;;20.70;101131.00;;;;2048047;28;20231;-52
2022/12/27 02:25:01;;;;;;;3.60;2.55;;;;;20.70;101133.00;;;;2049998;28;20227;-52
2022/12/27 02:26:43;;;;;;;4.13;2.15;;;;;20.70;101140.00;;;;2035674;29;20429;-53
2022/12/27 02:28:05;;;;;;;2.90;2.00;;;;;20.70;101136.00;;;;2014103;29;20251;-52
2022/12/27 02:29:26;;;;;;;4.70;3.03;;;;;20.70;101111.00;;;;2013861;29;20357;-53
2022/12/27 02:30:29;;;;;;;6.18;2.00;;;;;20.70;101137.00;;;;2003595;29;20394;-53
2022/12/27 02:31:42;;;;;;;3.60;1.90;;;;;20.70;101133.00;;;;1999289;29;20220;-53
2022/12/27 02:32:50;;;;;;;5.18;2.33;;;;;20.70;101128.00;;;;2005901;29;20231;-53
2022/12/27 02:33:50;;;;;;;3.03;1.85;;;;;20.70;101137.00;;;;2050581;28;20228;-53
2022/12/27 02:35:12;;;;;;;2.77;1.77;;;;;20.70;101130.00;;;;2045261;29;20596;-53
2022/12/27 02:36:19;;;;;;;4.10;2.10;;;;;20.70;101134.00;;;;2040863;29;20633;-54
2022/12/27 02:37:19;;;;;;;3.78;1.80;;;;;20.70;101144.00;;;;2033026;29;20245;-52
2022/12/27 02:38:30;;;;;;;3.43;1.90;;;;;20.70;101134.00;;;;2022671;29;20219;-53
2022/12/27 02:39:31;;;;;;;3.45;2.38;;;;;20.70;101137.00;;;;2032544;29;20702;-53
2022/12/27 02:53:07;;;;;;;3.05;1.95;;;;;20.60;101149.00;;;;2040876;29;20295;-53
2022/12/27 02:54:10;;;;;;;2.85;1.52;;;;;20.60;101144.00;;;;2037107;28;20228;-53
2022/12/27 02:55:31;;;;;;;2.78;1.65;;;;;20.60;101144.00;;;;2048246;28;20216;-53
2022/12/27 02:58:20;;;;;;;2.78;1.88;;;;;20.60;101148.00;;;;2025917;29;20213;-52
2022/12/27 02:59:32;;;;;;;4.38;1.95;;;;;20.60;101144.00;;;;2039499;28;20216;-52
2022/12/27 03:03:54;;;;;;;2.45;1.60;;;;;20.60;101103.00;;;;2037522;29;20217;-53
2022/12/27 03:05:17;;;;;;;3.70;1.60;;;;;20.60;101140.00;;;;2025258;29;20272;-52
2022/12/27 03:07:54;;;;;;;2.75;1.67;;;;;20.60;101138.00;;;;2041099;28;20917;-52
2022/12/27 03:09:00;;;;;;;3.08;1.40;;;;;20.60;101127.00;;;;2049735;28;20749;-52
2022/12/27 03:16:42;;;;;;;2.92;1.50;;;;;20.50;101151.00;;;;2052411;28;20211;-53
2022/12/27 03:17:52;;;;;;;2.20;1.60;;;;;20.50;101137.00;;;;2034502;29;20221;-53
2022/12/27 03:18:54;;;;;;;2.58;1.52;;;;;20.60;101135.00;;;;2029550;29;20278;-54
2022/12/27 03:25:26;;;;;;;2.75;1.38;;;;;20.50;101131.00;;;;2037095;29;20220;-53
2022/12/27 03:25:39;;;;;;;2.33;1.40;;;;;20.50;101143.00;;;;2044935;28;20716;-52
2022/12/27 03:26:44;;;;;;;2.60;1.60;;;;;20.50;101133.00;;;;2040727;29;20220;-52
2022/12/27 03:27:44;;;;;;;4.00;2.00;;;;;20.50;101143.00;;;;2038391;28;20654;-53
2022/12/27 03:33:12;;;;;;;4.45;1.65;;;;;20.50;101155.00;;;;2050201;28;20227;-53
2022/12/27 03:38:54;;;;;;;2.65;1.40;;;;;20.40;101163.00;;;;2054710;28;20680;-52
2022/12/27 03:40:26;;;;;;;2.85;1.40;;;;;20.50;101166.00;;;;2042611;29;20212;-53
2022/12/27 03:43:12;;;;;;;2.90;1.63;;;;;20.50;101164.00;;;;2055275;28;20207;-52
2022/12/27 03:44:33;;;;;;;2.15;1.25;;;;;20.50;101159.00;;;;2043147;29;20211;-53
2022/12/27 03:47:21;;;;;;;1.80;1.23;;;;;20.40;101161.00;;;;2054589;28;20203;-52
2022/12/27 03:48:22;;;;;;;2.92;1.50;;;;;20.40;101158.00;;;;2047223;28;20266;-52
2022/12/27 03:49:32;;;;;;;3.45;1.65;;;;;20.40;101150.00;;;;2047928;28;20234;-52
2022/12/27 03:50:39;;;;;;;4.07;1.40;;;;;20.40;101154.00;;;;2051588;28;20212;-53
2022/12/27 03:51:45;;;;;;;3.88;1.83;;;;;20.40;101161.00;;;;2047219;28;20290;-52
2022/12/27 03:52:53;;;;;;;3.47;1.83;;;;;20.40;101164.00;;;;2031990;29;20298;-53
2022/12/27 03:53:57;;;;;;;3.30;1.50;;;;;20.40;101150.00;;;;2043306;28;20224;-53
2022/12/27 03:54:58;;;;;;;3.55;1.70;;;;;20.50;101145.00;;;;2031747;29;20300;-53
2022/12/27 03:55:58;;;;;;;3.63;1.57;;;;;20.40;101144.00;;;;2031629;29;20694;-53
2022/12/27 03:57:00;;;;;;;3.47;1.67;;;;;20.40;101155.00;;;;2031506;29;20317;-53
2022/12/27 03:58:00;;;;;;;1.65;1.40;;;;;20.40;101152.00;;;;2042460;28;20647;-53
2022/12/27 03:59:01;;;;;;;2.10;1.30;;;;;20.40;101155.00;;;;2030456;29;20253;-53
2022/12/27 04:00:03;;;;;;;2.80;1.70;;;;;20.40;101154.00;;;;2039952;29;20216;-52
2022/12/27 04:01:03;;;;;;;2.47;1.30;;;;;20.40;101163.00;;;;2043696;29;20219;-52
2022/12/27 04:02:04;;;;;;;2.97;1.60;;;;;20.40;101164.00;;;;2042165;28;20311;-53
2022/12/27 04:03:04;;;;;;;3.90;1.60;;;;;20.40;101153.00;;;;2054694;28;20243;-53
2022/12/27 04:04:04;;;;;;;2.50;1.70;;;;;20.40;101160.00;;;;2054637;28;20219;-53
2022/12/27 04:05:05;;;;;;;2.30;1.30;;;;;20.40;101158.00;;;;2046633;28;20220;-53
2022/12/27 04:06:06;;;;;;;2.20;1.17;;;;;20.40;101160.00;;;;2048031;28;21029;-53
2022/12/27 04:07:06;;;;;;;3.67;1.53;;;;;20.40;101156.00;;;;2054553;28;20263;-53
2022/12/27 04:35:43;;;;;;;2.80;1.10;;;;;20.30;101169.00;;;;2055197;28;20227;-53
2022/12/27 04:36:43;;;;;;;3.33;1.47;;;;;20.30;101160.00;;;;2063531;28;20207;-53
2022/12/27 04:37:43;;;;;;;3.47;1.60;;;;;20.30;101148.00;;;;2059748;28;20211;-52
2022/12/27 04:38:43;;;;;;;2.47;1.37;;;;;20.30;101117.00;;;;2063677;28;20567;-52
2022/12/27 04:54:55;;;;;;;3.93;1.47;;;;;20.30;101153.00;;;;2062859;28;20615;-53
2022/12/27 04:55:49;;;;;;;2.17;1.20;;;;;20.30;101171.00;;;;2058271;28;20227;-53
2022/12/27 04:56:50;;;;;;;3.30;1.60;;;;;20.30;101179.00;;;;2055242;28;20211;-51
2022/12/27 04:57:51;;;;;;;2.83;1.23;;;;;20.20;101167.00;;;;2055530;28;20215;-53
2022/12/27 05:02:48;;;;;;;2.58;1.40;;;;;20.20;101186.00;;;;2063065;28;20687;-53
2022/12/27 05:03:50;;;;;;;3.10;1.30;;;;;20.20;101182.00;;;;2053785;28;20219;-53
2022/12/27 05:04:50;;;;;;;1.98;1.60;;;;;20.20;101181.00;;;;2033920;29;20313;-52
2022/12/27 05:05:50;;;;;;;2.83;1.23;;;;;20.20;101197.00;;;;2031019;29;20317;-53
2022/12/27 05:06:51;;;;;;;2.07;1.13;;;;;20.20;101190.00;;;;2033681;29;20310;-52
2022/12/27 05:14:27;;;;;;;2.90;1.40;;;;;20.20;101196.00;;;;2053136;28;20223;-53
2022/12/27 05:15:28;;;;;;;2.70;1.30;;;;;20.20;101205.00;;;;2054782;28;21241;-53
2022/12/27 05:16:36;;;;;;;3.60;1.17;;;;;20.10;101204.00;;;;2055468;28;20752;-53
2022/12/27 05:17:37;;;;;;;4.75;1.45;;;;;20.20;101200.00;;;;2057032;28;20219;-52
2022/12/27 05:18:37;;;;;;;2.27;1.40;;;;;20.20;101204.00;;;;2055013;28;20739;-52
2022/12/27 05:19:37;;;;;;;2.50;1.17;;;;;20.20;101202.00;;;;2054737;28;20653;-53
2022/12/27 05:20:38;;;;;;;2.50;1.03;;;;;20.20;101200.00;;;;2054844;28;20222;-53
2022/12/27 05:21:39;;;;;;;1.97;1.17;;;;;20.20;101210.00;;;;2054866;28;20238;-53
2022/12/27 05:25:36;;;;;;;2.05;1.20;;;;;20.20;101208.00;;;;2054616;28;20219;-53
2022/12/27 05:26:37;;;;;;;2.20;1.02;;;;;20.20;101211.00;;;;2054902;28;20245;-53
2022/12/27 05:27:37;;;;;;;2.20;1.40;;;;;20.20;101214.00;;;;2055064;28;20211;-52
2022/12/27 05:28:38;;;;;;;3.50;1.10;;;;;20.10;101209.00;;;;2053841;28;20225;-52
2022/12/27 05:29:38;;;;;;;2.37;1.40;;;;;20.20;101219.00;;;;2054836;28;20227;-52
2022/12/27 05:30:40;;;;;;;2.37;1.30;;;;;20.10;101218.00;;;;2054933;28;20228;-53
2022/12/27 05:31:40;;;;;;;3.10;1.30;;;;;20.10;101211.00;;;;2054747;28;20228;-51
2022/12/27 05:32:40;;;;;;;2.33;1.30;;;;;20.20;101218.00;;;;2053508;28;20215;-52
2022/12/27 05:33:41;;;;;;;3.80;1.33;;;;;20.20;101226.00;;;;2054222;28;20220;-53
2022/12/27 05:34:41;;;;;;;3.50;1.33;;;;;20.20;101214.00;;;;2054536;28;20247;-52
2022/12/27 05:35:41;;;;;;;2.73;1.43;;;;;20.10;101222.00;;;;2052814;28;20247;-53
2022/12/27 05:36:42;;;;;;;2.63;1.30;;;;;20.10;101225.00;;;;2054816;28;20237;-52
2022/12/27 05:37:42;;;;;;;1.53;1.10;;;;;20.10;101224.00;;;;2054555;28;20231;-52
2022/12/27 05:38:42;;;;;;;2.50;1.30;;;;;20.20;101239.00;;;;2046678;28;20224;-53
2022/12/27 05:39:43;;;;;;;3.30;1.20;;;;;20.10;101238.00;;;;2045562;28;20224;-56
2022/12/27 05:40:43;;;;;;;2.77;1.30;;;;;20.10;101245.00;;;;2054959;28;20248;-54
2022/12/27 05:41:43;;;;;;;2.33;1.10;;;;;20.10;101242.00;;;;2062646;28;20211;-54
2022/12/27 05:42:44;;;;;;;2.73;1.87;;;;;20.10;101236.00;;;;2062376;28;20273;-53
2022/12/27 05:43:44;;;;;;;3.17;1.20;;;;;20.10;101235.00;;;;2056590;28;20239;-53
2022/12/27 05:44:44;;;;;;;3.03;1.50;;;;;20.10;101240.00;;;;2061954;28;20548;-54
2022/12/27 05:45:45;;;;;;;2.10;1.43;;;;;20.10;101236.00;;;;2058719;28;20215;-53
2022/12/27 05:46:45;;;;;;;3.50;1.20;;;;;20.10;101242.00;;;;2054813;28;20215;-53
2022/12/27 05:47:45;;;;;;;3.27;1.40;;;;;20.10;101238.00;;;;2054931;28;20211;-53
2022/12/27 05:48:46;;;;;;;5.33;1.40;;;;;20.10;101240.00;;;;2046598;28;20283;-53
2022/12/27 05:49:46;;;;;;;3.10;1.00;;;;;20.10;101246.00;;;;2046629;28;20219;-53
2022/12/27 05:50:47;;;;;;;2.17;1.43;;;;;20.10;101239.00;;;;2062798;28;20918;-53
2022/12/27 05:51:47;;;;;;;2.53;1.20;;;;;20.10;101241.00;;;;2062310;28;20594;-53
2022/12/27 05:52:47;;;;;;;3.67;1.57;;;;;20.10;101241.00;;;;2058840;28;20219;-53
2022/12/27 05:53:48;;;;;;;4.43;1.80;;;;;20.10;101233.00;;;;2055232;28;20234;-53
2022/12/27 05:54:48;;;;;;;4.13;1.50;;;;;20.10;101232.00;;;;2059368;28;20703;-53
2022/12/27 05:55:55;;;;;;;2.80;1.30;;;;;20.10;101232.00;;;;2057012;28;20219;-53
2022/12/27 05:56:55;;;;;;;3.08;1.45;;;;;20.10;101234.00;;;;2054854;28;20235;-53
2022/12/27 05:57:56;;;;;;;2.67;1.30;;;;;20.10;101235.00;;;;2055703;28;20273;-53
2022/12/27 05:58:56;;;;;;;2.10;1.30;;;;;20.20;101229.00;;;;2062612;28;20214;-53
2022/12/27 05:59:56;;;;;;;2.20;1.10;;;;;20.10;101235.00;;;;2062753;28;20305;-53
2022/12/27 06:00:57;;;;;;;1.90;1.20;;;;;20.10;101234.00;;;;2062594;28;20219;-52
2022/12/27 06:01:57;;;;;;;2.10;1.17;;;;;20.10;101235.00;;;;2061830;28;20695;-53
2022/12/27 06:02:58;;;;;;;3.40;1.40;;;;;20.10;101240.00;;;;2062804;28;20234;-53
2022/12/27 06:03:58;;;;;;;2.87;1.33;;;;;20.10;101229.00;;;;2050229;28;20213;-53
2022/12/27 06:04:58;;;;;;;3.00;1.40;;;;;20.10;101233.00;;;;2054193;28;20278;-53
2022/12/27 06:06:00;;;;;;;2.60;1.20;;;;;20.20;101232.00;;;;2062570;28;20225;-53
2022/12/27 06:07:01;;;;;;;3.42;1.40;;;;;20.20;101237.00;;;;2053995;28;20244;-53
2022/12/27 06:08:01;;;;;;;3.70;1.40;;;;;20.20;101240.00;;;;2054086;28;20719;-53
2022/12/27 06:09:01;;;;;;;4.40;1.40;;;;;20.20;101246.00;;;;2061263;28;20586;-53
2022/12/27 06:10:06;;;;;;;2.83;1.60;;;;;20.30;101243.00;;;;2062551;28;20210;-53
2022/12/27 06:11:16;;;;;;;3.33;1.27;;;;;20.30;101252.00;;;;2053030;28;20220;-53
2022/12/27 06:12:16;;;;;;;3.13;1.17;;;;;20.30;101253.00;;;;2046916;28;20231;-53
2022/12/27 06:13:16;;;;;;;3.23;1.60;;;;;20.30;101267.00;;;;2054435;28;20212;-53
2022/12/27 06:14:17;;;;;;;3.60;1.27;;;;;20.40;101260.00;;;;2053976;28;20314;-53
2022/12/27 06:15:17;;;;;;;3.60;1.37;;;;;20.40;101255.00;;;;2061298;28;20342;-53
2022/12/27 06:16:18;;;;;;;2.63;1.30;;;;;20.40;101256.00;;;;2062720;28;20203;-53
2022/12/27 06:17:18;;;;;;;2.87;1.10;;;;;20.40;101263.00;;;;2062301;28;20211;-56
2022/12/27 06:18:18;;;;;;;3.13;1.47;;;;;20.40;101263.00;;;;2056735;28;20389;-56
2022/12/27 06:19:19;;;;;;;3.87;1.67;;;;;20.50;101259.00;;;;2058025;28;20215;-54
2022/12/27 06:20:19;;;;;;;2.43;1.30;;;;;20.50;101267.00;;;;2045837;28;20303;-54
2022/12/27 06:21:19;;;;;;;2.33;1.17;;;;;20.50;101254.00;;;;2042545;28;20945;-54
2022/12/27 06:22:20;;;;;;;3.37;1.30;;;;;20.50;101256.00;;;;2053940;28;20219;-53
2022/12/27 06:23:20;;;;;;;2.23;1.10;;;;;20.50;101266.00;;;;2054245;28;20711;-53
2022/12/27 06:24:21;;;;;;;3.30;1.60;;;;;20.50;101266.00;;;;2053762;28;20707;-53
2022/12/27 06:25:21;;;;;;;2.77;1.20;;;;;20.50;101267.00;;;;2061657;28;20335;-54
2022/12/27 06:26:23;;;;;;;1.97;1.17;;;;;20.50;101261.00;;;;2054619;28;20250;-53
2022/12/27 06:27:23;;;;;;;1.90;1.33;;;;;20.60;101267.00;;;;2054481;28;20250;-54
2022/12/27 06:28:23;;;;;;;3.70;1.50;;;;;20.60;101265.00;;;;2054555;28;20215;-53
2022/12/27 06:29:24;;;;;;;2.93;1.50;;;;;20.60;101268.00;;;;2055113;28;20238;-53
2022/12/27 06:30:24;;;;;;;3.57;1.40;;;;;20.60;101267.00;;;;2060860;28;20690;-53
2022/12/27 06:31:24;;;;;;;2.63;0.90;;;;;20.60;101266.00;;;;2060316;28;20757;-53
2022/12/27 06:32:25;;;;;;;4.37;1.17;;;;;20.60;101268.00;;;;2061400;28;20767;-53
2022/12/27 06:33:25;;;;;;;2.20;1.20;;;;;20.60;101271.00;;;;2054698;28;20513;-55
2022/12/27 06:34:26;;;;;;;2.80;1.33;;;;;20.60;101275.00;;;;2054550;28;20215;-55
2022/12/27 06:35:26;;;;;;;2.90;1.07;;;;;20.60;101270.00;;;;2060079;28;20698;-54
2022/12/27 06:36:31;;;;;;;3.45;1.35;;;;;20.60;101268.00;;;;2062105;28;20322;-53
2022/12/27 06:37:31;;;;;;;2.65;1.40;;;;;20.60;101271.00;;;;2062379;28;20211;-53
2022/12/27 06:38:31;;;;;;;2.10;1.30;;;;;20.60;101268.00;;;;2062602;28;20232;-53
2022/12/27 06:39:32;;;;;;;2.80;1.37;;;;;20.60;101277.00;;;;2062204;28;20578;-53
2022/12/27 06:40:32;;;;;;;3.40;1.27;;;;;20.70;101269.00;;;;2062262;28;20770;-53
2022/12/27 06:41:33;;;;;;;2.17;1.20;;;;;20.70;101273.00;;;;2062384;28;20572;-53
2022/12/27 06:42:33;;;;;;;2.80;1.43;;;;;20.70;101264.00;;;;2060242;28;20210;-53
2022/12/27 06:43:33;;;;;;;3.10;1.60;;;;;20.70;101267.00;;;;2054612;28;20254;-53
2022/12/27 06:44:34;;;;;;;3.00;1.30;;;;;20.70;101279.00;;;;2054208;28;20310;-53
2022/12/27 06:45:34;;;;;;;2.47;1.50;;;;;20.70;101278.00;;;;2054578;28;20222;-53
2022/12/27 06:46:34;;;;;;;2.30;1.17;;;;;20.70;101271.00;;;;2054098;28;20212;-53
2022/12/27 06:47:35;;;;;;;5.07;1.33;;;;;20.70;101270.00;;;;2054408;28;20258;-53
2022/12/27 06:48:35;;;;;;;2.10;1.00;;;;;20.70;101278.00;;;;2054411;28;20212;-53
2022/12/27 06:49:36;;;;;;;2.20;0.97;;;;;20.70;101270.00;;;;2054426;28;21061;-53
2022/12/27 06:50:36;;;;;;;4.50;1.10;;;;;20.70;101271.00;;;;2049431;28;20207;-53